createdAt,value
2019-03-23T00:03:45.781Z,99.90
2019-03-23T00:07:50.782Z,99.90
2019-03-23T00:11:55.809Z,99.90
2019-03-23T00:16:00.817Z,99.90
2019-03-23T00:20:06.994Z,99.90
2019-03-23T00:24:11.990Z,99.90
2019-03-23T00:28:18.125Z,99.90
2019-03-23T00:32:23.205Z,99.90
2019-03-23T00:36:28.428Z,99.90
2019-03-23T00:40:33.453Z,99.90
2019-03-23T00:44:38.489Z,99.90
2019-03-23T00:48:43.505Z,99.90
2019-03-23T00:52:48.544Z,99.90
2019-03-23T00:56:53.554Z,99.90
2019-03-23T01:00:58.612Z,99.90
2019-03-23T01:05:04.695Z,99.90
2019-03-23T01:09:09.694Z,99.90
2019-03-23T01:13:14.687Z,99.90
2019-03-23T01:17:19.694Z,99.90
2019-03-23T01:21:24.785Z,99.90
2019-03-23T01:25:29.853Z,99.90
2019-03-23T01:29:34.963Z,99.90
2019-03-23T01:33:41.180Z,99.90
2019-03-23T01:37:47.235Z,99.90
2019-03-23T01:41:52.230Z,99.90
2019-03-23T01:45:57.341Z,99.90
2019-03-23T01:50:02.346Z,99.90
2019-03-23T01:54:07.314Z,99.90
2019-03-23T01:58:12.385Z,99.90
2019-03-23T02:02:17.425Z,99.90
2019-03-23T02:06:22.423Z,99.90
2019-03-23T02:10:27.421Z,99.90
2019-03-23T02:14:32.416Z,99.90
2019-03-23T02:18:37.401Z,99.90
2019-03-23T02:22:42.497Z,99.90
2019-03-23T02:26:47.493Z,99.90
2019-03-23T02:30:52.518Z,99.90
2019-03-23T02:34:57.519Z,99.90
2019-03-23T02:39:02.515Z,99.90
2019-03-23T02:43:07.594Z,99.90
2019-03-23T02:47:12.642Z,99.90
2019-03-23T02:51:17.667Z,99.90
2019-03-23T02:55:22.662Z,99.90
2019-03-23T02:59:27.638Z,99.90
2019-03-23T03:03:32.654Z,99.90
2019-03-23T03:07:42.573Z,99.90
2019-03-23T03:11:44.277Z,99.90
2019-03-23T03:15:49.388Z,99.90
2019-03-23T03:19:54.361Z,99.90
2019-03-23T03:23:59.455Z,99.90
2019-03-23T03:28:04.726Z,99.90
2019-03-23T03:32:09.794Z,99.90
2019-03-23T03:36:14.965Z,99.90
2019-03-23T03:40:19.966Z,99.90
2019-03-23T03:44:24.945Z,99.90
2019-03-23T03:48:30.169Z,99.90
2019-03-23T03:52:35.275Z,99.90
2019-03-23T03:56:40.330Z,99.90
2019-03-23T04:00:45.371Z,99.90
2019-03-23T04:04:51.329Z,99.90
2019-03-23T04:08:56.358Z,99.90
2019-03-23T04:13:01.361Z,99.90
2019-03-23T04:17:06.372Z,99.90
2019-03-23T04:21:11.390Z,99.90
2019-03-23T04:25:16.375Z,99.90
2019-03-23T04:29:21.495Z,99.90
2019-03-23T04:33:26.539Z,99.90
2019-03-23T04:37:31.578Z,99.90
2019-03-23T04:41:36.598Z,99.90
2019-03-23T04:45:41.678Z,99.90
2019-03-23T04:49:46.678Z,99.90
2019-03-23T04:53:51.701Z,99.90
2019-03-23T04:57:58.661Z,99.90
2019-03-23T05:02:03.661Z,99.90
2019-03-23T05:06:08.660Z,99.90
2019-03-23T05:10:14.185Z,99.90
2019-03-23T05:14:19.181Z,99.90
2019-03-23T05:18:24.309Z,99.90
2019-03-23T05:22:29.314Z,99.90
2019-03-23T05:26:34.381Z,99.90
2019-03-23T05:30:39.357Z,99.90
2019-03-23T05:34:44.362Z,99.90
2019-03-23T05:38:49.655Z,98.70
2019-03-23T05:42:54.981Z,92.80
2019-03-23T05:47:00.391Z,84.60
2019-03-23T05:51:05.637Z,75.80
2019-03-23T05:55:10.985Z,70.40
2019-03-23T05:59:16.442Z,62.90
2019-03-23T06:03:21.825Z,55.50
2019-03-23T06:07:27.113Z,51.30
2019-03-23T06:11:32.408Z,48.30
2019-03-23T06:15:39.469Z,45.40
2019-03-23T06:19:45.749Z,44.60
2019-03-23T06:23:51.045Z,42.40
2019-03-23T06:27:56.373Z,39.40
2019-03-23T06:32:01.635Z,36.40
2019-03-23T06:36:08.022Z,35.40
2019-03-23T06:40:14.601Z,33.20
2019-03-23T06:44:20.688Z,31.80
2019-03-23T06:48:26.169Z,30.80
2019-03-23T06:52:31.555Z,30.10
2019-03-23T06:56:38.405Z,29.30
2019-03-23T07:00:44.663Z,28.40
2019-03-23T07:04:50.010Z,28.10
2019-03-23T07:08:55.298Z,26.80
2019-03-23T07:13:00.596Z,26.20
2019-03-23T07:17:05.841Z,25.60
2019-03-23T07:21:11.122Z,26.20
2019-03-23T07:25:16.550Z,25.30
2019-03-23T07:29:21.850Z,25.10
2019-03-23T07:33:27.273Z,24.20
2019-03-23T07:37:33.689Z,24.30
2019-03-23T07:41:38.938Z,24.30
2019-03-23T07:45:44.223Z,24.10
2019-03-23T07:49:49.577Z,24.00
2019-03-23T07:53:54.964Z,24.20
2019-03-23T07:58:00.259Z,24.40
2019-03-23T08:02:05.654Z,24.20
2019-03-23T08:06:10.942Z,24.10
2019-03-23T08:10:30.528Z,23.70
2019-03-23T08:14:36.256Z,23.20
2019-03-23T08:18:41.658Z,23.90
2019-03-23T08:22:47.041Z,23.30
2019-03-23T08:26:52.494Z,22.80
2019-03-23T08:30:57.781Z,22.60
2019-03-23T08:35:03.069Z,22.80
2019-03-23T08:39:08.650Z,22.50
2019-03-23T08:43:13.910Z,21.80
2019-03-23T08:47:19.207Z,21.20
2019-03-23T08:51:24.500Z,21.10
2019-03-23T08:55:29.791Z,21.00
2019-03-23T08:59:36.983Z,21.60
2019-03-23T09:03:52.097Z,21.30
2019-03-23T09:07:49.448Z,21.00
2019-03-23T09:11:54.953Z,21.50
2019-03-23T09:16:00.354Z,22.00
2019-03-23T09:20:08.737Z,22.50
2019-03-23T09:24:14.737Z,21.80
2019-03-23T09:28:20.174Z,21.80
2019-03-23T09:32:25.468Z,21.70
2019-03-23T09:36:30.982Z,21.60
2019-03-23T09:40:36.489Z,21.30
2019-03-23T09:44:43.718Z,21.00
2019-03-23T09:48:48.669Z,21.60
2019-03-23T09:52:54.061Z,20.90
2019-03-23T09:57:00.438Z,20.50
2019-03-23T10:01:05.733Z,20.00
2019-03-23T10:05:11.245Z,19.80
2019-03-23T10:09:16.506Z,19.90
2019-03-23T10:13:21.906Z,20.00
2019-03-23T10:17:27.269Z,20.70
2019-03-23T10:21:32.541Z,20.70
2019-03-23T10:25:37.884Z,21.00
2019-03-23T10:29:43.405Z,20.80
2019-03-23T10:33:49.846Z,20.90
2019-03-23T10:37:57.564Z,21.10
2019-03-23T10:42:02.833Z,21.20
2019-03-23T10:46:08.706Z,21.10
2019-03-23T10:50:14.334Z,21.40
2019-03-23T10:54:19.717Z,21.00
2019-03-23T10:58:25.060Z,20.80
2019-03-23T11:02:30.336Z,21.10
2019-03-23T11:06:36.667Z,21.50
2019-03-23T11:10:42.743Z,21.10
2019-03-23T11:14:48.478Z,21.80
2019-03-23T11:18:54.162Z,22.00
2019-03-23T11:23:00.138Z,21.40
2019-03-23T11:27:05.657Z,21.30
2019-03-23T11:31:11.633Z,21.50
2019-03-23T11:35:18.879Z,21.80
2019-03-23T11:39:24.231Z,22.20
2019-03-23T11:43:29.505Z,22.90
2019-03-23T11:47:34.947Z,24.00
2019-03-23T11:51:40.233Z,24.50
2019-03-23T11:55:45.493Z,24.70
2019-03-23T11:59:50.895Z,25.40
2019-03-23T12:03:56.394Z,25.70
2019-03-23T12:08:01.703Z,26.20
2019-03-23T12:12:07.106Z,26.80
2019-03-23T12:16:12.388Z,28.30
2019-03-23T12:20:17.698Z,29.50
2019-03-23T12:24:23.007Z,31.10
2019-03-23T12:28:28.369Z,33.50
2019-03-23T12:32:33.649Z,35.50
2019-03-23T12:36:38.920Z,37.00
2019-03-23T12:40:44.299Z,37.80
2019-03-23T12:44:49.582Z,38.40
2019-03-23T12:48:54.946Z,39.10
2019-03-23T12:53:00.258Z,39.80
2019-03-23T12:57:05.537Z,40.30
2019-03-23T13:01:10.910Z,40.50
2019-03-23T13:05:16.371Z,40.10
2019-03-23T13:09:21.693Z,40.40
2019-03-23T13:13:26.987Z,40.10
2019-03-23T13:17:32.387Z,40.80
2019-03-23T13:21:37.610Z,41.40
2019-03-23T13:25:42.910Z,41.20
2019-03-23T13:29:48.193Z,41.50
2019-03-23T13:33:53.848Z,41.30
2019-03-23T13:37:59.111Z,41.00
2019-03-23T13:42:04.506Z,41.40
2019-03-23T13:46:09.827Z,41.60
2019-03-23T13:50:19.270Z,42.00
2019-03-23T13:54:24.619Z,41.70
2019-03-23T13:58:29.942Z,42.40
2019-03-23T14:02:35.249Z,42.30
2019-03-23T14:06:40.613Z,41.90
2019-03-23T14:10:45.894Z,42.30
2019-03-23T14:14:51.199Z,42.60
2019-03-23T14:18:56.464Z,43.50
2019-03-23T14:23:02.900Z,44.40
2019-03-23T14:27:08.374Z,46.80
2019-03-23T14:31:13.714Z,47.00
2019-03-23T14:35:19.969Z,47.40
2019-03-23T14:39:25.229Z,48.00
2019-03-23T14:43:30.513Z,48.60
2019-03-23T14:47:36.955Z,49.90
2019-03-23T14:51:42.228Z,49.70
2019-03-23T14:55:47.562Z,50.60
2019-03-23T14:59:52.803Z,50.30
2019-03-23T15:03:58.170Z,50.40
2019-03-23T15:08:03.497Z,50.60
2019-03-23T15:12:14.891Z,49.90
2019-03-23T15:16:15.726Z,50.00
2019-03-23T15:20:21.002Z,50.20
2019-03-23T15:24:26.381Z,50.40
2019-03-23T15:28:31.714Z,50.40
2019-03-23T15:32:37.010Z,52.10
2019-03-23T15:36:42.320Z,52.20
2019-03-23T15:40:47.565Z,52.00
2019-03-23T15:44:52.866Z,51.80
2019-03-23T15:48:58.165Z,51.90
2019-03-23T15:53:03.449Z,55.20
2019-03-23T15:57:08.731Z,59.80
2019-03-23T16:01:14.023Z,62.60
2019-03-23T16:05:19.362Z,66.50
2019-03-23T16:09:24.650Z,70.00
2019-03-23T16:13:29.933Z,73.80
2019-03-23T16:17:35.327Z,74.00
2019-03-23T16:21:40.614Z,74.80
2019-03-23T16:25:45.882Z,77.20
2019-03-23T16:29:52.146Z,78.80
2019-03-23T16:33:58.690Z,81.10
2019-03-23T16:38:04.057Z,83.30
2019-03-23T16:42:09.358Z,85.20
2019-03-23T16:46:14.632Z,86.60
2019-03-23T16:50:19.926Z,87.70
2019-03-23T16:54:25.232Z,89.00
2019-03-23T16:58:30.513Z,90.00
2019-03-23T17:02:35.859Z,90.60
2019-03-23T17:06:46.399Z,90.80
2019-03-23T17:10:48.151Z,91.20
2019-03-23T17:14:53.486Z,91.50
2019-03-23T17:19:00.650Z,92.00
2019-03-23T17:23:05.908Z,92.90
2019-03-23T17:27:12.171Z,93.30
2019-03-23T17:31:17.690Z,93.60
2019-03-23T17:35:24.057Z,94.00
2019-03-23T17:39:29.358Z,94.40
2019-03-23T17:43:34.653Z,94.50
2019-03-23T17:47:40.009Z,94.70
2019-03-23T17:51:45.297Z,94.90
2019-03-23T17:55:50.688Z,95.10
2019-03-23T17:59:55.967Z,95.20
2019-03-23T18:04:01.259Z,94.80
2019-03-23T18:08:06.557Z,94.00
2019-03-23T18:12:12.069Z,93.80
2019-03-23T18:16:17.369Z,92.90
2019-03-23T18:20:23.706Z,92.50
2019-03-23T18:24:29.410Z,92.20
2019-03-23T18:28:35.278Z,92.20
2019-03-23T18:32:41.202Z,92.30
2019-03-23T18:36:48.181Z,92.20
2019-03-23T18:40:53.628Z,92.50
2019-03-23T18:44:59.005Z,92.50
2019-03-23T18:49:04.466Z,92.60
2019-03-23T18:53:10.018Z,92.60
2019-03-23T18:57:15.320Z,92.60
2019-03-23T19:01:20.602Z,92.70
2019-03-23T19:05:25.938Z,92.90
2019-03-23T19:09:31.229Z,92.80
2019-03-23T19:13:38.059Z,92.90
2019-03-23T19:17:43.536Z,92.90
2019-03-23T19:21:48.870Z,91.70
2019-03-23T19:25:54.153Z,90.90
2019-03-23T19:29:59.510Z,91.10
2019-03-23T19:34:05.234Z,91.00
2019-03-23T19:38:10.536Z,92.20
2019-03-23T19:42:15.830Z,92.50
2019-03-23T19:46:21.093Z,92.70
2019-03-23T19:50:26.369Z,92.80
2019-03-23T19:54:31.656Z,93.00
2019-03-23T19:58:36.931Z,93.30
2019-03-23T20:02:42.205Z,93.50
2019-03-23T20:06:47.493Z,93.70
2019-03-23T20:10:52.776Z,93.90
2019-03-23T20:14:58.138Z,94.20
2019-03-23T20:19:03.462Z,94.30
2019-03-23T20:23:08.743Z,95.10
2019-03-23T20:27:14.094Z,95.10
2019-03-23T20:31:20.457Z,95.60
2019-03-23T20:35:26.640Z,96.00
2019-03-23T20:39:32.011Z,96.40
2019-03-23T20:43:37.293Z,96.70
2019-03-23T20:47:43.081Z,96.90
2019-03-23T20:51:48.929Z,97.30
2019-03-23T20:55:54.196Z,97.60
2019-03-23T21:00:01.430Z,97.90
2019-03-23T21:04:06.779Z,98.00
2019-03-23T21:08:11.796Z,98.20
2019-03-23T21:12:16.801Z,98.50
2019-03-23T21:16:21.795Z,98.80
2019-03-23T21:20:26.778Z,98.80
2019-03-23T21:24:31.791Z,98.70
2019-03-23T21:28:37.861Z,98.10
2019-03-23T21:32:43.161Z,97.50
2019-03-23T21:36:48.435Z,97.10
2019-03-23T21:40:53.689Z,96.80
2019-03-23T21:44:58.966Z,96.50
2019-03-23T21:49:04.250Z,96.40
2019-03-23T21:53:09.270Z,96.20
2019-03-23T21:57:14.652Z,96.30
2019-03-23T22:01:19.906Z,96.30
2019-03-23T22:05:25.198Z,96.30
2019-03-23T22:09:30.484Z,96.20
2019-03-23T22:13:35.763Z,95.80
2019-03-23T22:17:41.050Z,95.70
2019-03-23T22:21:46.325Z,95.70
2019-03-23T22:25:51.590Z,95.90
2019-03-23T22:29:56.866Z,95.60
2019-03-23T22:34:02.182Z,95.80
2019-03-23T22:38:07.461Z,95.80
2019-03-23T22:42:13.110Z,95.90
2019-03-23T22:46:18.463Z,96.00
2019-03-23T22:50:23.766Z,96.00
2019-03-23T22:54:29.362Z,96.00
2019-03-23T22:58:34.878Z,96.50
2019-03-23T23:02:40.162Z,96.20
2019-03-23T23:06:46.402Z,96.30
2019-03-23T23:10:51.684Z,96.50
2019-03-23T23:15:04.428Z,96.70
2019-03-23T23:19:03.877Z,96.80
2019-03-23T23:23:09.154Z,97.00
2019-03-23T23:27:14.404Z,97.10
2019-03-23T23:31:19.693Z,97.30
2019-03-23T23:35:24.986Z,97.20
2019-03-23T23:39:30.362Z,97.30
2019-03-23T23:43:35.720Z,97.30
2019-03-23T23:47:40.979Z,97.30
2019-03-23T23:51:50.374Z,97.40
2019-03-23T23:55:53.311Z,97.50
2019-03-23T23:59:58.605Z,97.70
